ZSPD METAR and TAF | Updated Today

ZSPD METAR

Shanghai Pudong International Airport

Observation time: 10 min. ago

ZSPD 060730Z 12004MPS 9999 FEW040 15/07 Q1025 NOSIG

Need help? Read our tutorial on how to read METARs or read the parsed version below.

Shanghai Pudong International Airport (ZSPD) METAR

  • Weather conditions on Mon, 06 Dec 2021 07:30:00 +0000 (10 min. ago):
  • Present conditions: Dry
  • Clouds: A few at 1219 meters
  • Visibility: Greater than 10 km
  • Wind: 120 degrees at 4 knots
  • Temperature: 15 celsius
  • Dew point: 7 celsius
  • Pressure: 1025 millibars
  • Remarks: None


Useful to know...

ZSPD TAF

Shanghai Pudong International Airport

TAF ZSPD 060306Z 0606/0706 12004MPS 6000 BKN020 TX17/0606Z TN08/0620Z BECMG 0615/0616 36004MPS
Observation time: 4:34 hr. ago
Need help? Read our tutorial on how to read TAFs or read the parsed version below.

Parsed version of TAF for Shanghai Pudong International Airport (ZSPD)

  • From 06 December at 06:00 UTC, to day 07 of the month at 06:00 UTC
  • Clouds: Broken sky at 610 meters
  • Visibility: 6000 meters
  • Wind: 120 degrees at 4
  • Expected to arise soon, from 06 December at 15:00 UTC, to day 06 of the month at 16:00 UTC
  • Wind: 360 degrees at 4